createdAt,value
2017-12-28T00:01:33.548Z,4.70
2017-12-28T00:04:02.731Z,4.70
2017-12-28T00:06:31.240Z,4.80
2017-12-28T00:09:00.459Z,4.80
2017-12-28T00:11:28.846Z,4.80
2017-12-28T00:13:57.809Z,4.80
2017-12-28T00:16:26.207Z,4.80
2017-12-28T00:18:54.605Z,4.80
2017-12-28T00:21:23.155Z,4.80
2017-12-28T00:23:52.317Z,4.80
2017-12-28T00:26:20.689Z,4.70
2017-12-28T00:28:49.248Z,4.80
2017-12-28T00:31:17.651Z,4.80
2017-12-28T00:33:46.114Z,4.80
2017-12-28T00:36:14.641Z,4.80
2017-12-28T00:38:43.789Z,4.80
2017-12-28T00:41:12.168Z,4.70
2017-12-28T00:43:40.688Z,4.80
2017-12-28T00:46:09.439Z,4.70
2017-12-28T00:48:37.816Z,4.70
2017-12-28T00:51:06.279Z,4.70
2017-12-28T00:53:34.675Z,4.70
2017-12-28T00:56:04.044Z,4.80
2017-12-28T00:58:32.782Z,4.80
2017-12-28T01:01:01.175Z,4.80
2017-12-28T01:03:29.599Z,4.80
2017-12-28T01:05:58.126Z,4.80
2017-12-28T01:08:26.538Z,4.70
2017-12-28T01:10:55.725Z,4.80
2017-12-28T01:13:24.282Z,4.70
2017-12-28T01:15:52.672Z,4.80
2017-12-28T01:18:21.056Z,4.70
2017-12-28T01:20:49.549Z,4.70
2017-12-28T01:23:18.912Z,4.80
2017-12-28T01:25:47.332Z,4.70
2017-12-28T01:28:16.548Z,4.70
2017-12-28T01:30:44.928Z,4.70
2017-12-28T01:33:13.360Z,4.70
2017-12-28T01:35:41.900Z,4.80
2017-12-28T01:38:10.317Z,4.80
2017-12-28T01:40:38.722Z,4.80
2017-12-28T01:43:07.135Z,4.80
2017-12-28T01:45:35.546Z,4.80
2017-12-28T01:48:04.452Z,4.80
2017-12-28T01:50:32.986Z,4.80
2017-12-28T01:53:02.177Z,4.80
2017-12-28T01:55:30.812Z,4.80
2017-12-28T01:57:59.397Z,4.80
2017-12-28T02:00:27.801Z,4.80
2017-12-28T02:02:56.253Z,4.80
2017-12-28T02:05:24.752Z,4.80
2017-12-28T02:07:53.148Z,4.80
2017-12-28T02:10:22.316Z,4.70
2017-12-28T02:12:51.188Z,4.70
2017-12-28T02:15:19.593Z,4.70
2017-12-28T02:17:47.992Z,4.70
2017-12-28T02:20:16.423Z,4.70
2017-12-28T02:22:44.818Z,4.70
2017-12-28T02:25:13.245Z,4.70
2017-12-28T02:27:41.664Z,4.70
2017-12-28T02:30:10.161Z,4.70
2017-12-28T02:32:38.547Z,4.80
2017-12-28T02:35:07.016Z,4.80
2017-12-28T02:37:35.603Z,4.70
2017-12-28T02:40:04.049Z,4.70
2017-12-28T02:42:33.417Z,4.70
2017-12-28T02:45:01.800Z,4.70
2017-12-28T02:47:30.945Z,4.60
2017-12-28T02:49:59.731Z,4.60
2017-12-28T02:52:28.110Z,4.60
2017-12-28T02:54:56.557Z,4.60
2017-12-28T02:57:25.135Z,4.60
2017-12-28T02:59:54.270Z,4.50
2017-12-28T03:02:22.857Z,4.50
2017-12-28T03:04:51.350Z,4.50
2017-12-28T03:07:19.731Z,4.40
2017-12-28T03:09:48.137Z,4.40
2017-12-28T03:12:18.124Z,4.30
2017-12-28T03:14:46.531Z,4.30
2017-12-28T03:17:14.905Z,4.30
2017-12-28T03:19:43.447Z,4.20
2017-12-28T03:22:11.846Z,4.20
2017-12-28T03:24:40.234Z,4.20
2017-12-28T03:27:09.347Z,4.20
2017-12-28T03:29:37.725Z,4.10
2017-12-28T03:32:06.125Z,4.10
2017-12-28T03:34:34.617Z,4.00
2017-12-28T03:37:02.999Z,4.00
2017-12-28T03:39:31.417Z,4.00
2017-12-28T03:42:00.048Z,4.00
2017-12-28T03:44:28.464Z,4.00
2017-12-28T03:46:56.885Z,4.00
2017-12-28T03:49:25.329Z,4.00
2017-12-28T03:51:54.011Z,3.90
2017-12-28T03:54:22.399Z,4.00
2017-12-28T03:56:50.881Z,3.90
2017-12-28T03:59:19.270Z,3.90
2017-12-28T04:01:47.647Z,3.90
2017-12-28T04:04:16.242Z,3.90
2017-12-28T04:06:44.617Z,3.80
2017-12-28T04:09:13.050Z,3.90
2017-12-28T04:11:41.608Z,3.80
2017-12-28T04:14:10.765Z,3.90
2017-12-28T04:16:39.222Z,3.90
2017-12-28T04:19:07.831Z,3.90
2017-12-28T04:21:36.219Z,3.90
2017-12-28T04:24:04.664Z,3.90
2017-12-28T04:26:33.167Z,3.90
2017-12-28T04:29:01.572Z,3.90
2017-12-28T04:31:29.976Z,3.90
2017-12-28T04:33:59.189Z,3.90
2017-12-28T04:36:27.544Z,3.90
2017-12-28T04:38:56.701Z,3.80
2017-12-28T04:41:25.830Z,3.80
2017-12-28T04:43:54.642Z,3.80
2017-12-28T04:46:23.013Z,3.80
2017-12-28T04:48:52.298Z,3.70
2017-12-28T04:51:21.430Z,3.60
2017-12-28T04:53:50.121Z,3.60
2017-12-28T04:56:19.460Z,3.60
2017-12-28T04:58:47.841Z,3.60
2017-12-28T05:01:16.216Z,3.60
2017-12-28T05:03:45.033Z,3.60
2017-12-28T05:06:14.221Z,3.60
2017-12-28T05:08:42.613Z,3.60
2017-12-28T05:11:11.029Z,3.60
2017-12-28T05:13:39.439Z,3.60
2017-12-28T05:16:07.822Z,3.50
2017-12-28T05:18:36.428Z,3.50
2017-12-28T05:21:04.798Z,3.50
2017-12-28T05:23:33.158Z,3.50
2017-12-28T05:26:01.656Z,3.50
2017-12-28T05:28:30.034Z,3.50
2017-12-28T05:30:58.487Z,3.50
2017-12-28T05:33:26.983Z,3.50
2017-12-28T05:35:55.390Z,3.50
2017-12-28T05:38:24.597Z,3.50
2017-12-28T05:40:54.059Z,3.50
2017-12-28T05:43:22.532Z,3.50
2017-12-28T05:45:50.897Z,3.50
2017-12-28T05:48:19.314Z,3.50
2017-12-28T05:50:47.686Z,3.50
2017-12-28T05:53:16.075Z,3.50
2017-12-28T05:55:44.912Z,3.50
2017-12-28T05:58:13.318Z,3.50
2017-12-28T06:00:41.725Z,3.50
2017-12-28T06:03:10.134Z,3.50
2017-12-28T06:05:38.511Z,3.50
2017-12-28T06:08:06.903Z,3.40
2017-12-28T06:10:36.141Z,3.40
2017-12-28T06:13:04.536Z,3.40
2017-12-28T06:15:32.932Z,3.30
2017-12-28T06:18:01.459Z,3.30
2017-12-28T06:20:29.939Z,3.30
2017-12-28T06:22:58.308Z,3.30
2017-12-28T06:25:26.854Z,3.20
2017-12-28T06:27:56.035Z,3.20
2017-12-28T06:30:24.434Z,3.20
2017-12-28T06:32:53.688Z,3.10
2017-12-28T06:35:22.085Z,3.00
2017-12-28T06:37:50.469Z,3.00
2017-12-28T06:40:18.905Z,2.90
2017-12-28T06:42:47.339Z,2.80
2017-12-28T06:45:15.768Z,2.90
2017-12-28T06:47:46.348Z,2.80
2017-12-28T06:50:14.825Z,2.90
2017-12-28T06:52:43.612Z,2.90
2017-12-28T06:55:12.186Z,2.90
2017-12-28T06:57:41.056Z,3.00
2017-12-28T07:00:09.989Z,2.90
2017-12-28T07:02:39.694Z,2.70
2017-12-28T07:05:08.856Z,2.70
2017-12-28T07:07:37.237Z,2.70
2017-12-28T07:10:06.038Z,2.70
2017-12-28T07:12:34.427Z,2.70
2017-12-28T07:15:02.814Z,2.70
2017-12-28T07:17:31.383Z,2.70
2017-12-28T07:19:59.753Z,2.60
2017-12-28T07:22:28.153Z,2.50
2017-12-28T07:24:57.473Z,2.50
2017-12-28T07:27:25.868Z,2.50
2017-12-28T07:29:54.250Z,2.50
2017-12-28T07:32:23.201Z,2.40
2017-12-28T07:34:52.562Z,2.60
2017-12-28T07:37:20.997Z,2.50
2017-12-28T07:39:49.651Z,2.60
2017-12-28T07:42:18.109Z,2.70
2017-12-28T07:44:46.539Z,2.80
2017-12-28T07:47:15.784Z,2.70
2017-12-28T07:49:44.159Z,2.70
2017-12-28T07:52:12.537Z,2.70
2017-12-28T07:54:40.979Z,2.70
2017-12-28T07:57:10.120Z,2.70
2017-12-28T07:59:39.045Z,2.70
2017-12-28T08:02:07.490Z,2.70
2017-12-28T08:04:35.858Z,2.70
2017-12-28T08:07:04.232Z,2.80
2017-12-28T08:09:32.811Z,2.80
2017-12-28T08:12:01.259Z,2.80
2017-12-28T08:14:30.424Z,2.80
2017-12-28T08:16:58.943Z,2.80
2017-12-28T08:19:28.099Z,2.80
2017-12-28T08:21:56.470Z,2.70
2017-12-28T08:24:25.208Z,2.80
2017-12-28T08:26:54.381Z,2.70
2017-12-28T08:29:22.743Z,2.70
2017-12-28T08:31:51.309Z,2.80
2017-12-28T08:34:19.704Z,2.80
2017-12-28T08:36:48.160Z,2.80
2017-12-28T08:39:16.584Z,2.90
2017-12-28T08:41:44.971Z,2.90
2017-12-28T08:44:14.134Z,2.90
2017-12-28T08:46:42.593Z,2.90
2017-12-28T08:49:11.281Z,2.90
2017-12-28T08:51:39.648Z,2.90
2017-12-28T08:54:08.257Z,3.00
2017-12-28T08:56:36.647Z,2.90
2017-12-28T08:59:05.050Z,2.90
2017-12-28T09:01:34.354Z,3.00
2017-12-28T09:04:03.605Z,2.90
2017-12-28T09:06:32.032Z,2.90
2017-12-28T09:09:01.390Z,3.00
2017-12-28T09:11:29.803Z,3.00
2017-12-28T09:13:58.264Z,3.00
2017-12-28T09:16:26.844Z,3.10
2017-12-28T09:18:55.240Z,3.00
2017-12-28T09:21:23.637Z,3.10
2017-12-28T09:23:52.952Z,3.20
2017-12-28T09:26:22.142Z,3.30
2017-12-28T09:28:51.328Z,3.20
2017-12-28T09:31:19.885Z,3.20
2017-12-28T09:33:48.296Z,3.10
2017-12-28T09:36:17.447Z,3.30
2017-12-28T09:38:46.702Z,3.30
2017-12-28T09:41:15.090Z,3.30
2017-12-28T09:43:43.780Z,3.40
2017-12-28T09:46:13.109Z,3.20
2017-12-28T09:48:41.521Z,3.20
2017-12-28T09:51:09.916Z,3.20
2017-12-28T09:53:39.118Z,3.30
2017-12-28T09:56:08.259Z,3.30
2017-12-28T09:58:36.720Z,3.30
2017-12-28T10:01:05.236Z,3.30
2017-12-28T10:03:33.888Z,3.30
2017-12-28T10:06:02.282Z,3.40
2017-12-28T10:08:30.870Z,3.40
2017-12-28T10:10:59.298Z,3.70
2017-12-28T10:13:28.446Z,4.00
2017-12-28T10:15:57.736Z,4.10
2017-12-28T10:18:26.877Z,4.10
2017-12-28T10:20:55.268Z,4.20
2017-12-28T10:23:24.900Z,4.60
2017-12-28T10:25:53.292Z,4.60
2017-12-28T10:28:21.754Z,4.60
2017-12-28T10:30:50.306Z,4.60
2017-12-28T10:33:18.721Z,5.00
2017-12-28T10:35:47.083Z,5.30
2017-12-28T10:38:16.423Z,5.60
2017-12-28T10:40:44.802Z,5.60
2017-12-28T10:43:13.213Z,5.30
2017-12-28T10:45:41.666Z,5.10
2017-12-28T10:48:10.885Z,5.30
2017-12-28T10:50:39.296Z,5.30
2017-12-28T10:53:07.937Z,5.40
2017-12-28T10:55:36.328Z,5.10
2017-12-28T10:58:04.710Z,4.90
2017-12-28T11:00:34.277Z,4.70
2017-12-28T11:03:02.675Z,4.70
2017-12-28T11:05:31.582Z,4.60
2017-12-28T11:08:00.112Z,4.80
2017-12-28T11:10:29.264Z,4.60
2017-12-28T11:12:57.664Z,4.60
2017-12-28T11:15:26.232Z,4.60
2017-12-28T11:17:54.660Z,4.70
2017-12-28T11:20:23.062Z,4.70
2017-12-28T11:22:51.522Z,4.60
2017-12-28T11:25:19.918Z,4.70
2017-12-28T11:27:48.307Z,4.70
2017-12-28T11:30:16.838Z,4.60
2017-12-28T11:32:45.987Z,4.60
2017-12-28T11:35:14.384Z,4.60
2017-12-28T11:37:42.874Z,4.60
2017-12-28T11:40:11.279Z,4.70
2017-12-28T11:42:40.546Z,4.70
2017-12-28T11:45:09.008Z,4.70
2017-12-28T11:47:37.440Z,4.80
2017-12-28T11:50:11.002Z,4.80
2017-12-28T11:52:43.185Z,4.80
2017-12-28T11:58:09.386Z,4.90
2017-12-28T12:00:43.517Z,4.90
2017-12-28T12:03:11.941Z,4.80
2017-12-28T12:05:47.459Z,4.70
2017-12-28T12:08:21.365Z,4.60
2017-12-28T12:10:52.536Z,4.60
2017-12-28T12:13:21.707Z,4.50
2017-12-28T12:15:50.127Z,4.50
2017-12-28T12:18:19.353Z,4.60
2017-12-28T12:20:47.761Z,4.50
2017-12-28T12:23:16.184Z,4.70
2017-12-28T12:25:44.784Z,4.70
2017-12-28T12:28:13.397Z,4.80
2017-12-28T12:30:41.801Z,4.80
2017-12-28T12:33:10.381Z,4.90
2017-12-28T12:35:38.757Z,5.00
2017-12-28T12:38:07.167Z,4.90
2017-12-28T12:40:36.775Z,4.70
2017-12-28T12:43:05.951Z,4.60
2017-12-28T12:45:34.353Z,4.60
2017-12-28T12:48:03.644Z,4.60
2017-12-28T12:50:32.840Z,4.80
2017-12-28T12:53:01.321Z,4.80
2017-12-28T12:55:30.937Z,4.60
2017-12-28T12:58:00.101Z,4.70
2017-12-28T13:00:28.531Z,4.70
2017-12-28T13:02:57.365Z,4.60
2017-12-28T13:05:25.971Z,4.60
2017-12-28T13:07:54.700Z,4.40
2017-12-28T13:10:23.116Z,4.20
2017-12-28T13:12:52.343Z,4.20
2017-12-28T13:15:20.742Z,4.10
2017-12-28T13:17:49.519Z,4.10
2017-12-28T13:20:18.679Z,4.00
2017-12-28T13:22:47.052Z,3.90
2017-12-28T13:25:15.853Z,3.90
2017-12-28T13:27:44.267Z,3.90
2017-12-28T13:30:13.438Z,3.80
2017-12-28T13:32:42.121Z,3.80
2017-12-28T13:35:10.541Z,3.90
2017-12-28T13:37:39.009Z,3.90
2017-12-28T13:40:08.534Z,4.00
2017-12-28T13:42:37.073Z,4.10
2017-12-28T13:45:05.695Z,4.10
2017-12-28T13:47:34.114Z,4.20
2017-12-28T13:50:02.532Z,4.30
2017-12-28T13:52:31.708Z,4.40
2017-12-28T13:55:00.161Z,4.40
2017-12-28T13:57:28.539Z,4.50
2017-12-28T13:59:56.939Z,4.60
2017-12-28T14:02:25.413Z,4.60
2017-12-28T14:04:53.795Z,4.40
2017-12-28T14:07:22.218Z,4.20
2017-12-28T14:09:50.846Z,3.80
2017-12-28T14:12:19.214Z,3.70
2017-12-28T14:14:47.594Z,3.50
2017-12-28T14:17:16.047Z,3.40
2017-12-28T14:19:44.460Z,3.30
2017-12-28T14:22:12.947Z,3.20
2017-12-28T14:24:41.474Z,3.20
2017-12-28T14:27:10.381Z,3.20
2017-12-28T14:29:38.768Z,3.10
2017-12-28T14:32:07.460Z,3.10
2017-12-28T14:34:35.838Z,3.00
2017-12-28T14:37:04.235Z,3.00
2017-12-28T14:39:32.704Z,3.00
2017-12-28T14:42:01.098Z,3.00
2017-12-28T14:44:29.502Z,3.00
2017-12-28T14:46:57.961Z,3.00
2017-12-28T14:49:26.371Z,2.90
2017-12-28T14:51:54.766Z,2.90
2017-12-28T14:54:24.103Z,2.80
2017-12-28T14:56:52.548Z,2.80
2017-12-28T14:59:20.949Z,2.80
2017-12-28T15:01:49.386Z,2.80
2017-12-28T15:04:17.796Z,2.70
2017-12-28T15:06:46.956Z,2.60
2017-12-28T15:09:15.779Z,2.60
2017-12-28T15:11:45.037Z,2.50
2017-12-28T15:14:13.422Z,2.50
2017-12-28T15:16:42.005Z,2.40
2017-12-28T15:19:10.376Z,2.40
2017-12-28T15:21:39.268Z,2.30
2017-12-28T15:24:07.830Z,2.30
2017-12-28T15:26:36.873Z,2.30
2017-12-28T15:29:05.274Z,2.20
2017-12-28T15:31:34.741Z,2.20
2017-12-28T15:34:03.986Z,2.30
2017-12-28T15:36:32.365Z,2.20
2017-12-28T15:39:00.932Z,2.70
2017-12-28T15:41:30.083Z,2.50
2017-12-28T15:43:58.477Z,2.60
2017-12-28T15:46:27.179Z,2.40
2017-12-28T15:48:55.560Z,2.30
2017-12-28T15:51:23.944Z,2.20
2017-12-28T15:53:53.147Z,2.20
2017-12-28T15:56:22.287Z,2.30
2017-12-28T15:58:50.746Z,2.20
2017-12-28T16:01:20.860Z,2.30
2017-12-28T16:03:49.254Z,2.30
2017-12-28T16:06:17.650Z,2.30
2017-12-28T16:08:46.730Z,2.30
2017-12-28T16:11:15.175Z,2.30
2017-12-28T16:13:45.275Z,2.40
2017-12-28T16:16:13.695Z,2.30
2017-12-28T16:18:42.070Z,2.30
2017-12-28T16:21:10.469Z,2.30
2017-12-28T16:23:39.050Z,2.30
2017-12-28T16:26:07.449Z,2.30
2017-12-28T16:28:35.856Z,2.30
2017-12-28T16:31:04.462Z,2.40
2017-12-28T16:33:32.837Z,2.40
2017-12-28T16:36:01.428Z,2.40
2017-12-28T16:38:29.871Z,2.40
2017-12-28T16:40:58.281Z,2.30
2017-12-28T16:43:27.437Z,2.30
2017-12-28T16:45:55.876Z,2.20
2017-12-28T16:48:24.325Z,2.20
2017-12-28T16:50:52.752Z,2.30
2017-12-28T16:53:21.184Z,2.20
2017-12-28T16:55:49.580Z,2.20
2017-12-28T16:58:17.960Z,2.20
2017-12-28T17:00:47.743Z,2.20
2017-12-28T17:03:16.141Z,2.20
2017-12-28T17:05:45.293Z,2.20
2017-12-28T17:08:13.733Z,2.20
2017-12-28T17:10:42.147Z,2.30
2017-12-28T17:13:10.591Z,2.20
2017-12-28T17:15:39.367Z,2.10
2017-12-28T17:18:08.520Z,2.10
2017-12-28T17:20:36.908Z,2.10
2017-12-28T17:23:05.416Z,2.20
2017-12-28T17:25:34.893Z,2.20
2017-12-28T17:28:03.316Z,2.10
2017-12-28T17:30:31.851Z,2.20
2017-12-28T17:33:00.232Z,2.20
2017-12-28T17:35:28.610Z,2.20
2017-12-28T17:37:57.159Z,2.20
2017-12-28T17:40:26.312Z,2.10
2017-12-28T17:42:55.484Z,2.10
2017-12-28T17:45:24.001Z,2.10
2017-12-28T17:47:53.137Z,2.10
2017-12-28T17:50:21.595Z,2.00
2017-12-28T17:52:50.108Z,2.00
2017-12-28T17:55:19.260Z,2.00
2017-12-28T17:57:48.420Z,2.00
2017-12-28T18:00:16.873Z,2.00
2017-12-28T18:02:45.255Z,2.00
2017-12-28T18:05:13.678Z,2.00
2017-12-28T18:07:43.274Z,1.90
2017-12-28T18:10:11.686Z,1.80
2017-12-28T18:12:40.887Z,1.80
2017-12-28T18:15:10.176Z,1.80
2017-12-28T18:17:39.548Z,1.80
2017-12-28T18:20:09.445Z,1.80
2017-12-28T18:22:37.968Z,1.80
2017-12-28T18:25:06.336Z,1.80
2017-12-28T18:27:34.770Z,1.80
2017-12-28T18:30:03.378Z,1.70
2017-12-28T18:32:31.777Z,1.70
2017-12-28T18:35:00.183Z,1.60
2017-12-28T18:37:28.633Z,1.70
2017-12-28T18:39:57.307Z,1.70
2017-12-28T18:42:25.695Z,1.60
2017-12-28T18:44:54.414Z,1.60
2017-12-28T18:47:23.567Z,1.70
2017-12-28T18:49:51.942Z,1.70
2017-12-28T18:52:20.779Z,1.60
2017-12-28T18:54:49.235Z,1.60
2017-12-28T18:57:17.641Z,1.50
2017-12-28T18:59:46.077Z,1.60
2017-12-28T19:02:14.459Z,1.50
2017-12-28T19:04:42.963Z,1.50
2017-12-28T19:07:11.664Z,1.40
2017-12-28T19:09:40.866Z,1.30
2017-12-28T19:12:09.235Z,1.30
2017-12-28T19:14:38.425Z,1.30
2017-12-28T19:17:06.815Z,1.30
2017-12-28T19:19:36.358Z,1.20
2017-12-28T19:22:04.924Z,1.30
2017-12-28T19:24:33.335Z,1.30
2017-12-28T19:27:01.720Z,1.20
2017-12-28T19:29:30.629Z,1.20
2017-12-28T19:31:59.026Z,1.20
2017-12-28T19:34:28.180Z,1.20
2017-12-28T19:36:56.792Z,1.20
2017-12-28T19:39:25.194Z,1.10
2017-12-28T19:41:54.355Z,1.00
2017-12-28T19:44:22.898Z,1.10
2017-12-28T19:46:51.354Z,1.10
2017-12-28T19:49:20.513Z,1.00
2017-12-28T19:51:49.312Z,1.00
2017-12-28T19:54:17.768Z,1.00
2017-12-28T19:56:46.143Z,1.00
2017-12-28T19:59:14.678Z,1.00
2017-12-28T20:01:43.832Z,1.00
2017-12-28T20:04:12.253Z,1.00
2017-12-28T20:06:41.623Z,1.00
2017-12-28T20:09:10.048Z,0.90
2017-12-28T20:11:38.449Z,0.90
2017-12-28T20:14:07.208Z,0.90
2017-12-28T20:16:36.374Z,1.00
2017-12-28T20:19:05.746Z,1.00
2017-12-28T20:21:34.567Z,0.90
2017-12-28T20:24:02.963Z,0.90
2017-12-28T20:26:32.174Z,0.90
2017-12-28T20:29:00.689Z,0.90
2017-12-28T20:31:29.111Z,0.90
2017-12-28T20:33:57.524Z,0.90
2017-12-28T20:36:26.094Z,0.90
2017-12-28T20:38:55.276Z,0.90
2017-12-28T20:41:23.720Z,0.90
2017-12-28T20:43:52.315Z,0.90
2017-12-28T20:46:20.765Z,0.90
2017-12-28T20:48:49.173Z,0.90
2017-12-28T20:51:17.628Z,0.90
2017-12-28T20:53:46.014Z,1.00
2017-12-28T20:56:14.573Z,1.00
2017-12-28T20:58:43.324Z,1.00
2017-12-28T21:01:12.506Z,1.00
2017-12-28T21:03:40.926Z,1.00
2017-12-28T21:06:10.314Z,1.00
2017-12-28T21:08:39.742Z,1.00
2017-12-28T21:11:08.146Z,1.00
2017-12-28T21:13:36.669Z,1.00
2017-12-28T21:16:05.109Z,1.10
2017-12-28T21:18:33.518Z,1.00
2017-12-28T21:21:02.122Z,1.00
2017-12-28T21:23:31.566Z,1.10
2017-12-28T21:25:59.958Z,1.10
2017-12-28T21:28:28.525Z,1.10
2017-12-28T21:30:56.905Z,1.10
2017-12-28T21:33:25.626Z,1.10
2017-12-28T21:35:54.240Z,1.10
2017-12-28T21:38:23.416Z,1.20
2017-12-28T21:40:51.820Z,1.10
2017-12-28T21:43:20.240Z,1.10
2017-12-28T21:45:48.816Z,1.20
2017-12-28T21:48:17.231Z,1.20
2017-12-28T21:50:46.041Z,1.20
2017-12-28T21:53:14.466Z,1.10
2017-12-28T21:55:42.867Z,1.20
2017-12-28T21:58:11.659Z,1.20
2017-12-28T22:00:40.060Z,1.20
2017-12-28T22:03:08.479Z,1.20
2017-12-28T22:05:36.995Z,1.10
2017-12-28T22:08:05.465Z,1.20
2017-12-28T22:10:33.873Z,1.20
2017-12-28T22:13:02.355Z,1.20
2017-12-28T22:15:30.743Z,1.10
2017-12-28T22:17:59.131Z,1.10
2017-12-28T22:20:28.367Z,1.10
2017-12-28T22:22:57.075Z,1.10
2017-12-28T22:25:25.574Z,1.00
2017-12-28T22:27:54.327Z,1.00
2017-12-28T22:30:22.711Z,1.00
2017-12-28T22:32:51.149Z,1.10
2017-12-28T22:35:20.452Z,1.10
2017-12-28T22:37:49.626Z,1.20
2017-12-28T22:40:18.005Z,1.10
2017-12-28T22:42:46.431Z,1.20
2017-12-28T22:45:14.826Z,1.10
2017-12-28T22:47:43.641Z,1.10
2017-12-28T22:50:12.080Z,1.10
2017-12-28T22:52:40.457Z,1.10
2017-12-28T22:55:08.845Z,1.10
2017-12-28T22:57:37.368Z,1.10
2017-12-28T23:00:06.616Z,1.10
2017-12-28T23:02:35.041Z,1.10
2017-12-28T23:05:03.554Z,1.10
2017-12-28T23:07:32.715Z,1.20
2017-12-28T23:10:01.146Z,1.20
2017-12-28T23:12:29.925Z,1.20
2017-12-28T23:14:58.313Z,1.20
2017-12-28T23:17:26.727Z,1.20
2017-12-28T23:19:55.170Z,1.20
2017-12-28T23:22:23.559Z,1.20
2017-12-28T23:24:51.971Z,1.20
2017-12-28T23:27:20.829Z,1.20
2017-12-28T23:29:49.208Z,1.10
2017-12-28T23:32:17.600Z,1.10
2017-12-28T23:34:46.818Z,1.00
2017-12-28T23:37:15.301Z,1.00
2017-12-28T23:39:43.701Z,0.90
2017-12-28T23:42:12.193Z,0.90
2017-12-28T23:44:41.356Z,0.80
2017-12-28T23:47:09.746Z,0.80
2017-12-28T23:49:38.349Z,0.80
2017-12-28T23:52:07.483Z,0.80
2017-12-28T23:54:35.855Z,0.80
2017-12-28T23:57:04.722Z,0.90
2017-12-28T23:59:33.858Z,0.90
